Churchill Airport
CYYQ : now visible

Airfield :











YOU CAN JOIN US ON...

 
LOGIN :

Register | Disclaimer

   EN    FR    IT 

 









Legend :    VFR   Marginal VFR   IFR   Intensive IFR   Very Intensive IFR
Visi :
Ceiling :
>= 8 km
>= 3000ft
5 to 8 km
1000 to 3000 ft
1500m to 5 km
500 to 1000 ft
800 to 1500m
200 to 500 ft
< 800m
< 200 ft
Symbols :   Thunderstorms  Fog  Heavy snow  Heavy precipitations  Wind > 20 kt






- Airport Elevation : 94 ft
- IATA code : YYQ


CYYQ - Churchill

CURRENT METAR :
  • 080500Z 29007KT 15SM BKN080 BKN100 17/12 A2957 RMK AC5AC2 SLP017 DENSITY ALT 700FT

EXPIRED METARs :
  • 080400Z 29006KT 15SM BKN100 16/12 A2956 RMK AC7 SLP013 DENSITY ALT 700FT
  • 080300Z VRB02KT 15SM BKN090 15/11 A2956 RMK AC7 SLP011 DENSITY ALT 600FT

TAF TAF CYYQ
Valid from the 08 at 00:00 until the 09 at 00:00 UTC


072339Z 0800/0824 34012G22KT P6SM SCT060 BKN250
TEMPO 0800/0806 BKN060
FM080600 30012G22KT P6SM BKN030
TEMPO 0806/0813 BKN020
FM081300 34010KT P6SM SCT006 BKN030
PROB30 0813/0820 1/2SM FG VV002
FM082000 06012KT P6SM FEW030 RMK NXT FCST BY 080600Z
CZWG FIR / North America



MET'MAP, your aeronautical weather chart ! - Copyright ORBIFLY December 2007 - Disclaimer

ORBIFLY MET'MAP TEAM :

Programming & Development : Alexandra Zaïnal
Concept & original design : Baudouin d'Aumeries
Assistance for programming : Marc-Olivier Méhu
Technical & hardware support : Manuel Goepfert

Contact : metmap@orbifly.com




SOURCES & CREDITS :

   NOAA       Earth
Advisory